Main page
METAR-TAF:

METAR-TAF

Airports :

Yuba County Airport

Marysville, California, United States

latitude: 39-05-52N, longitude: 121-34-11W, elevation: 62 ft

Current weather observation

The report was made 52 minutes ago, at 22:53 UTC
Wind 5 mph from the South/Southwest
Temperature 93°F
Humidity 20%
Pressure 29.94 in. Hg
Visibility: 10 miles
Clear sky

METAR: KMYV 172253Z AUTO 20004KT 10SM CLR 34/08 A2994 RMK AO2 SLP142 T03440083

Time: 16:45 (23:45 UTC)


TAF: missing

Weather observations and forecasts of more than 4000 airports (METAR and TAF reports).

The available stations are represented by yellow and red dots on the map.

Hover mouse over dot to see the name of the station.

Then click to see weather observations and forecasts.

To change the map : click on the green buttons with a black cross to zoom in, on the green button with a dash to zoom out, or on the green arrows for adjacent maps.


METAR-TAF: